sensor_id;sensor_type;location;lat;lon;timestamp;temperature;humidity
8939;DHT22;4504;48.810;9.172;2023-07-20T06:25:26;19.80;93.40
8939;DHT22;4504;48.810;9.172;2023-07-20T06:27:55;19.70;93.50
8939;DHT22;4504;48.810;9.172;2023-07-20T06:30:22;19.70;93.60
8939;DHT22;4504;48.810;9.172;2023-07-20T06:32:49;19.80;93.80
8939;DHT22;4504;48.810;9.172;2023-07-20T06:35:17;19.80;93.70
8939;DHT22;4504;48.810;9.172;2023-07-20T06:37:45;19.90;94.00
8939;DHT22;4504;48.810;9.172;2023-07-20T06:40:12;20.00;93.70
8939;DHT22;4504;48.810;9.172;2023-07-20T06:42:40;20.00;93.40
8939;DHT22;4504;48.810;9.172;2023-07-20T06:45:08;19.90;93.10
8939;DHT22;4504;48.810;9.172;2023-07-20T06:47:37;19.90;93.60
8939;DHT22;4504;48.810;9.172;2023-07-20T06:50:05;19.90;93.30
8939;DHT22;4504;48.810;9.172;2023-07-20T06:52:32;19.90;93.30
8939;DHT22;4504;48.810;9.172;2023-07-20T06:54:59;19.90;93.10
8939;DHT22;4504;48.810;9.172;2023-07-20T06:57:26;20.00;93.20
8939;DHT22;4504;48.810;9.172;2023-07-20T06:59:55;20.10;93.20
8939;DHT22;4504;48.810;9.172;2023-07-20T07:02:22;20.10;93.30
8939;DHT22;4504;48.810;9.172;2023-07-20T07:04:49;20.10;92.60
8939;DHT22;4504;48.810;9.172;2023-07-20T07:07:16;20.10;92.60
8939;DHT22;4504;48.810;9.172;2023-07-20T07:09:43;20.00;92.70
8939;DHT22;4504;48.810;9.172;2023-07-20T07:12:10;19.90;92.70
8939;DHT22;4504;48.810;9.172;2023-07-20T07:14:37;20.00;92.80
8939;DHT22;4504;48.810;9.172;2023-07-20T07:17:05;20.00;92.70
8939;DHT22;4504;48.810;9.172;2023-07-20T07:19:32;20.00;92.60
8939;DHT22;4504;48.810;9.172;2023-07-20T07:21:59;20.10;93.00
8939;DHT22;4504;48.810;9.172;2023-07-20T07:24:26;20.10;92.80
8939;DHT22;4504;48.810;9.172;2023-07-20T07:26:59;20.10;93.00
8939;DHT22;4504;48.810;9.172;2023-07-20T07:29:26;20.30;92.80
8939;DHT22;4504;48.810;9.172;2023-07-20T07:31:53;20.40;92.20
8939;DHT22;4504;48.810;9.172;2023-07-20T07:34:22;20.30;91.60
8939;DHT22;4504;48.810;9.172;2023-07-20T07:36:49;20.20;91.40
8939;DHT22;4504;48.810;9.172;2023-07-20T07:39:16;20.30;91.50
8939;DHT22;4504;48.810;9.172;2023-07-20T07:41:43;20.30;91.40
8939;DHT22;4504;48.810;9.172;2023-07-20T07:44:10;20.20;91.20
8939;DHT22;4504;48.810;9.172;2023-07-20T07:46:37;20.20;91.70
8939;DHT22;4504;48.810;9.172;2023-07-20T07:49:05;20.30;91.90
8939;DHT22;4504;48.810;9.172;2023-07-20T07:51:33;20.60;91.30
8939;DHT22;4504;48.810;9.172;2023-07-20T07:54:00;20.60;91.00
8939;DHT22;4504;48.810;9.172;2023-07-20T07:56:27;20.60;90.60
8939;DHT22;4504;48.810;9.172;2023-07-20T07:58:54;20.60;90.70
8939;DHT22;4504;48.810;9.172;2023-07-20T08:01:21;20.70;91.10
8939;DHT22;4504;48.810;9.172;2023-07-20T08:03:48;20.80;91.30
8939;DHT22;4504;48.810;9.172;2023-07-20T08:06:15;20.90;91.10
8939;DHT22;4504;48.810;9.172;2023-07-20T08:08:43;20.90;90.10
8939;DHT22;4504;48.810;9.172;2023-07-20T08:11:10;21.00;89.00
8939;DHT22;4504;48.810;9.172;2023-07-20T08:13:37;21.00;89.40
8939;DHT22;4504;48.810;9.172;2023-07-20T08:16:04;21.10;89.40
8939;DHT22;4504;48.810;9.172;2023-07-20T08:18:31;21.30;88.50
8939;DHT22;4504;48.810;9.172;2023-07-20T08:20:58;21.40;88.10
8939;DHT22;4504;48.810;9.172;2023-07-20T08:23:25;21.50;88.60
8939;DHT22;4504;48.810;9.172;2023-07-20T08:25:54;21.60;88.90
8939;DHT22;4504;48.810;9.172;2023-07-20T08:28:21;21.50;87.60
8939;DHT22;4504;48.810;9.172;2023-07-20T08:30:49;21.40;88.30
8939;DHT22;4504;48.810;9.172;2023-07-20T08:33:17;21.30;88.80
8939;DHT22;4504;48.810;9.172;2023-07-20T08:35:45;21.30;90.10
8939;DHT22;4504;48.810;9.172;2023-07-20T08:38:13;21.10;90.00
8939;DHT22;4504;48.810;9.172;2023-07-20T08:40:41;21.20;90.20
8939;DHT22;4504;48.810;9.172;2023-07-20T08:43:10;21.30;88.90
8939;DHT22;4504;48.810;9.172;2023-07-20T08:45:39;21.40;88.50
8939;DHT22;4504;48.810;9.172;2023-07-20T08:48:07;21.60;87.40
8939;DHT22;4504;48.810;9.172;2023-07-20T08:50:35;21.70;87.40
8939;DHT22;4504;48.810;9.172;2023-07-20T08:53:02;21.90;87.10
8939;DHT22;4504;48.810;9.172;2023-07-20T08:55:30;21.90;84.90
8939;DHT22;4504;48.810;9.172;2023-07-20T08:57:58;21.80;83.70
8939;DHT22;4504;48.810;9.172;2023-07-20T09:00:27;21.70;84.30
8939;DHT22;4504;48.810;9.172;2023-07-20T09:02:55;21.70;85.40
8939;DHT22;4504;48.810;9.172;2023-07-20T09:05:23;21.70;86.70
8939;DHT22;4504;48.810;9.172;2023-07-20T09:07:51;21.70;83.40
8939;DHT22;4504;48.810;9.172;2023-07-20T09:10:20;21.70;82.50
8939;DHT22;4504;48.810;9.172;2023-07-20T09:12:47;21.80;82.10
8939;DHT22;4504;48.810;9.172;2023-07-20T09:15:14;22.00;81.20
8939;DHT22;4504;48.810;9.172;2023-07-20T09:17:47;22.20;79.70
8939;DHT22;4504;48.810;9.172;2023-07-20T09:20:15;22.20;77.90
8939;DHT22;4504;48.810;9.172;2023-07-20T09:22:43;22.20;78.00
8939;DHT22;4504;48.810;9.172;2023-07-20T09:25:11;22.30;79.30
8939;DHT22;4504;48.810;9.172;2023-07-20T09:27:39;22.30;80.90
8939;DHT22;4504;48.810;9.172;2023-07-20T09:30:07;22.20;80.30
8939;DHT22;4504;48.810;9.172;2023-07-20T09:32:41;22.00;81.20
8939;DHT22;4504;48.810;9.172;2023-07-20T09:35:14;21.80;82.00
8939;DHT22;4504;48.810;9.172;2023-07-20T09:37:46;21.70;80.80
8939;DHT22;4504;48.810;9.172;2023-07-20T09:40:15;21.90;82.30
8939;DHT22;4504;48.810;9.172;2023-07-20T09:42:43;22.00;79.20
8939;DHT22;4504;48.810;9.172;2023-07-20T09:45:11;22.20;79.90
8939;DHT22;4504;48.810;9.172;2023-07-20T09:47:38;22.40;78.50
8939;DHT22;4504;48.810;9.172;2023-07-20T09:50:07;22.40;77.20
8939;DHT22;4504;48.810;9.172;2023-07-20T09:52:39;22.40;77.30
8939;DHT22;4504;48.810;9.172;2023-07-20T09:55:07;22.40;75.90
8939;DHT22;4504;48.810;9.172;2023-07-20T09:57:35;22.30;74.20
8939;DHT22;4504;48.810;9.172;2023-07-20T10:00:04;22.30;74.30
8939;DHT22;4504;48.810;9.172;2023-07-20T10:02:41;22.30;73.80
8939;DHT22;4504;48.810;9.172;2023-07-20T10:05:11;22.40;71.40
8939;DHT22;4504;48.810;9.172;2023-07-20T10:07:43;22.50;71.40
8939;DHT22;4504;48.810;9.172;2023-07-20T10:10:10;22.70;71.80
8939;DHT22;4504;48.810;9.172;2023-07-20T10:12:39;23.00;70.30
8939;DHT22;4504;48.810;9.172;2023-07-20T10:15:11;23.20;71.40
8939;DHT22;4504;48.810;9.172;2023-07-20T10:17:47;23.30;68.20
8939;DHT22;4504;48.810;9.172;2023-07-20T10:20:17;23.30;67.20
8939;DHT22;4504;48.810;9.172;2023-07-20T10:22:49;23.20;64.90
8939;DHT22;4504;48.810;9.172;2023-07-20T10:25:20;23.10;65.50
8939;DHT22;4504;48.810;9.172;2023-07-20T10:27:49;23.10;65.90
8939;DHT22;4504;48.810;9.172;2023-07-20T10:30:18;22.80;63.70
8939;DHT22;4504;48.810;9.172;2023-07-20T10:32:45;22.60;64.30
8939;DHT22;4504;48.810;9.172;2023-07-20T10:35:14;22.70;64.30
8939;DHT22;4504;48.810;9.172;2023-07-20T10:37:53;23.10;65.40
8939;DHT22;4504;48.810;9.172;2023-07-20T10:40:30;23.40;64.60
8939;DHT22;4504;48.810;9.172;2023-07-20T10:43:03;23.40;63.20
8939;DHT22;4504;48.810;9.172;2023-07-20T10:45:39;23.50;63.10
8939;DHT22;4504;48.810;9.172;2023-07-20T10:48:13;23.60;61.20
8939;DHT22;4504;48.810;9.172;2023-07-20T10:50:41;23.60;60.60
8939;DHT22;4504;48.810;9.172;2023-07-20T10:53:14;23.60;60.70
8939;DHT22;4504;48.810;9.172;2023-07-20T10:55:42;23.70;61.20
8939;DHT22;4504;48.810;9.172;2023-07-20T10:58:10;23.30;60.20
8939;DHT22;4504;48.810;9.172;2023-07-20T11:00:44;23.30;60.40
8939;DHT22;4504;48.810;9.172;2023-07-20T11:03:30;23.30;61.10
8939;DHT22;4504;48.810;9.172;2023-07-20T11:05:57;23.40;60.50
8939;DHT22;4504;48.810;9.172;2023-07-20T11:08:44;23.20;59.80
8939;DHT22;4504;48.810;9.172;2023-07-20T11:11:21;23.30;60.30
8939;DHT22;4504;48.810;9.172;2023-07-20T11:13:59;23.60;59.30
8939;DHT22;4504;48.810;9.172;2023-07-20T11:16:38;24.20;58.60
8939;DHT22;4504;48.810;9.172;2023-07-20T11:19:13;24.80;56.70
8939;DHT22;4504;48.810;9.172;2023-07-20T11:21:42;24.60;55.60
8939;DHT22;4504;48.810;9.172;2023-07-20T11:24:11;25.00;55.90
8939;DHT22;4504;48.810;9.172;2023-07-20T11:26:43;25.60;54.70
8939;DHT22;4504;48.810;9.172;2023-07-20T11:29:11;25.50;54.00
8939;DHT22;4504;48.810;9.172;2023-07-20T11:31:39;25.10;55.60
8939;DHT22;4504;48.810;9.172;2023-07-20T11:34:09;24.70;54.70
8939;DHT22;4504;48.810;9.172;2023-07-20T11:36:36;24.60;57.10
8939;DHT22;4504;48.810;9.172;2023-07-20T11:39:06;25.10;55.70
8939;DHT22;4504;48.810;9.172;2023-07-20T11:41:36;25.80;54.60
8939;DHT22;4504;48.810;9.172;2023-07-20T11:44:04;25.70;53.40
8939;DHT22;4504;48.810;9.172;2023-07-20T11:46:32;25.80;53.50
8939;DHT22;4504;48.810;9.172;2023-07-20T11:48:59;26.00;51.90
8939;DHT22;4504;48.810;9.172;2023-07-20T11:51:30;25.60;51.90
8939;DHT22;4504;48.810;9.172;2023-07-20T11:53:58;25.50;53.30
8939;DHT22;4504;48.810;9.172;2023-07-20T11:56:26;25.40;51.50
8939;DHT22;4504;48.810;9.172;2023-07-20T11:58:58;25.70;51.80
8939;DHT22;4504;48.810;9.172;2023-07-20T12:01:28;26.10;52.90
8939;DHT22;4504;48.810;9.172;2023-07-20T12:03:57;25.90;51.10
8939;DHT22;4504;48.810;9.172;2023-07-20T12:06:27;26.20;50.90
8939;DHT22;4504;48.810;9.172;2023-07-20T12:08:54;26.10;49.70
8939;DHT22;4504;48.810;9.172;2023-07-20T12:11:36;26.20;50.30
8939;DHT22;4504;48.810;9.172;2023-07-20T12:14:07;26.70;49.90
8939;DHT22;4504;48.810;9.172;2023-07-20T12:16:35;26.60;47.60
8939;DHT22;4504;48.810;9.172;2023-07-20T12:19:05;26.50;48.10
8939;DHT22;4504;48.810;9.172;2023-07-20T12:21:34;26.40;47.60
8939;DHT22;4504;48.810;9.172;2023-07-20T12:24:03;26.40;48.10
8939;DHT22;4504;48.810;9.172;2023-07-20T12:26:31;26.80;48.90
8939;DHT22;4504;48.810;9.172;2023-07-20T12:28:58;27.20;48.20
8939;DHT22;4504;48.810;9.172;2023-07-20T12:31:27;27.20;48.10
8939;DHT22;4504;48.810;9.172;2023-07-20T12:33:56;27.00;49.60
8939;DHT22;4504;48.810;9.172;2023-07-20T12:36:24;27.00;48.50
8939;DHT22;4504;48.810;9.172;2023-07-20T12:38:51;27.00;49.20
8939;DHT22;4504;48.810;9.172;2023-07-20T12:41:18;27.10;48.60
8939;DHT22;4504;48.810;9.172;2023-07-20T12:43:46;27.30;48.70
8939;DHT22;4504;48.810;9.172;2023-07-20T12:46:13;28.40;47.30
8939;DHT22;4504;48.810;9.172;2023-07-20T12:48:41;27.80;45.80
8939;DHT22;4504;48.810;9.172;2023-07-20T12:51:09;27.80;47.10
8939;DHT22;4504;48.810;9.172;2023-07-20T12:53:37;27.20;46.30
8939;DHT22;4504;48.810;9.172;2023-07-20T12:56:05;27.10;46.40
8939;DHT22;4504;48.810;9.172;2023-07-20T12:58:32;27.10;47.20
8939;DHT22;4504;48.810;9.172;2023-07-20T13:00:59;28.30;45.70
8939;DHT22;4504;48.810;9.172;2023-07-20T13:03:26;28.30;44.40
8939;DHT22;4504;48.810;9.172;2023-07-20T13:05:54;28.10;44.20
8939;DHT22;4504;48.810;9.172;2023-07-20T13:08:21;28.20;43.80
8939;DHT22;4504;48.810;9.172;2023-07-20T13:10:51;27.60;44.20
8939;DHT22;4504;48.810;9.172;2023-07-20T13:13:18;27.50;46.20
8939;DHT22;4504;48.810;9.172;2023-07-20T13:15:45;27.40;44.80
8939;DHT22;4504;48.810;9.172;2023-07-20T13:18:13;26.80;45.30
8939;DHT22;4504;48.810;9.172;2023-07-20T13:20:40;27.20;45.60
8939;DHT22;4504;48.810;9.172;2023-07-20T13:23:09;27.70;44.80
8939;DHT22;4504;48.810;9.172;2023-07-20T13:25:36;28.20;42.80
8939;DHT22;4504;48.810;9.172;2023-07-20T13:28:05;27.90;43.50
8939;DHT22;4504;48.810;9.172;2023-07-20T13:30:32;28.10;43.90
8939;DHT22;4504;48.810;9.172;2023-07-20T13:32:59;28.00;43.60
8939;DHT22;4504;48.810;9.172;2023-07-20T13:35:26;28.60;42.80
8939;DHT22;4504;48.810;9.172;2023-07-20T13:37:53;28.60;43.10
8939;DHT22;4504;48.810;9.172;2023-07-20T13:40:22;28.40;42.60
8939;DHT22;4504;48.810;9.172;2023-07-20T13:42:50;28.10;41.60
8939;DHT22;4504;48.810;9.172;2023-07-20T13:45:17;28.00;42.90
8939;DHT22;4504;48.810;9.172;2023-07-20T13:47:44;28.00;43.30
8939;DHT22;4504;48.810;9.172;2023-07-20T13:50:12;28.10;43.60
8939;DHT22;4504;48.810;9.172;2023-07-20T13:52:39;28.40;42.60
8939;DHT22;4504;48.810;9.172;2023-07-20T13:55:07;28.40;42.40
8939;DHT22;4504;48.810;9.172;2023-07-20T13:57:35;28.70;42.00
8939;DHT22;4504;48.810;9.172;2023-07-20T14:00:03;29.10;41.90
8939;DHT22;4504;48.810;9.172;2023-07-20T14:02:37;28.90;41.80
8939;DHT22;4504;48.810;9.172;2023-07-20T14:05:05;29.00;40.60
8939;DHT22;4504;48.810;9.172;2023-07-20T14:07:32;29.20;42.90
8939;DHT22;4504;48.810;9.172;2023-07-20T14:09:59;28.90;40.20
8939;DHT22;4504;48.810;9.172;2023-07-20T14:12:26;29.00;41.90
8939;DHT22;4504;48.810;9.172;2023-07-20T14:14:55;29.50;40.30
8939;DHT22;4504;48.810;9.172;2023-07-20T14:17:22;30.00;39.40
8939;DHT22;4504;48.810;9.172;2023-07-20T14:19:53;30.00;38.60
8939;DHT22;4504;48.810;9.172;2023-07-20T14:22:20;29.40;38.70
8939;DHT22;4504;48.810;9.172;2023-07-20T14:24:47;28.60;40.20
8939;DHT22;4504;48.810;9.172;2023-07-20T14:27:14;28.80;39.50
8939;DHT22;4504;48.810;9.172;2023-07-20T14:29:41;29.20;38.90
8939;DHT22;4504;48.810;9.172;2023-07-20T14:32:09;28.90;38.00
8939;DHT22;4504;48.810;9.172;2023-07-20T14:34:37;29.30;38.00
8939;DHT22;4504;48.810;9.172;2023-07-20T14:37:04;29.40;37.70
8939;DHT22;4504;48.810;9.172;2023-07-20T14:39:31;29.50;38.10
8939;DHT22;4504;48.810;9.172;2023-07-20T14:41:58;30.10;37.40
8939;DHT22;4504;48.810;9.172;2023-07-20T14:44:25;30.90;35.90
8939;DHT22;4504;48.810;9.172;2023-07-20T14:46:52;31.20;36.10
8939;DHT22;4504;48.810;9.172;2023-07-20T14:49:21;30.40;35.30
8939;DHT22;4504;48.810;9.172;2023-07-20T14:51:48;30.70;35.50
8939;DHT22;4504;48.810;9.172;2023-07-20T14:54:15;30.60;34.10
8939;DHT22;4504;48.810;9.172;2023-07-20T14:56:49;31.10;35.60
8939;DHT22;4504;48.810;9.172;2023-07-20T14:59:18;30.30;34.90
8939;DHT22;4504;48.810;9.172;2023-07-20T15:01:45;29.70;37.20
8939;DHT22;4504;48.810;9.172;2023-07-20T15:04:13;29.70;37.60
8939;DHT22;4504;48.810;9.172;2023-07-20T15:06:41;29.40;38.30
8939;DHT22;4504;48.810;9.172;2023-07-20T15:09:08;28.80;39.10
8939;DHT22;4504;48.810;9.172;2023-07-20T15:11:36;29.00;38.10
8939;DHT22;4504;48.810;9.172;2023-07-20T15:14:04;29.20;38.20
8939;DHT22;4504;48.810;9.172;2023-07-20T15:16:31;29.40;37.70
8939;DHT22;4504;48.810;9.172;2023-07-20T15:18:58;29.10;37.20
8939;DHT22;4504;48.810;9.172;2023-07-20T15:21:25;28.90;38.70
8939;DHT22;4504;48.810;9.172;2023-07-20T15:23:57;28.80;38.20
8939;DHT22;4504;48.810;9.172;2023-07-20T15:26:24;28.60;38.90
8939;DHT22;4504;48.810;9.172;2023-07-20T15:28:52;28.80;39.30
8939;DHT22;4504;48.810;9.172;2023-07-20T15:31:19;29.00;37.90
8939;DHT22;4504;48.810;9.172;2023-07-20T15:33:46;28.60;37.60
8939;DHT22;4504;48.810;9.172;2023-07-20T15:36:13;29.10;38.40
8939;DHT22;4504;48.810;9.172;2023-07-20T15:38:40;29.70;38.30
8939;DHT22;4504;48.810;9.172;2023-07-20T15:41:09;30.10;37.40
8939;DHT22;4504;48.810;9.172;2023-07-20T15:43:36;30.20;36.70
8939;DHT22;4504;48.810;9.172;2023-07-20T15:49:10;28.90;37.30
8939;DHT22;4504;48.810;9.172;2023-07-20T15:51:38;28.30;38.10
8939;DHT22;4504;48.810;9.172;2023-07-20T15:54:08;28.20;38.60
8939;DHT22;4504;48.810;9.172;2023-07-20T15:56:38;28.50;38.20
8939;DHT22;4504;48.810;9.172;2023-07-20T15:59:08;28.50;39.00
8939;DHT22;4504;48.810;9.172;2023-07-20T16:01:35;28.10;39.60
8939;DHT22;4504;48.810;9.172;2023-07-20T16:04:03;28.20;40.40
8939;DHT22;4504;48.810;9.172;2023-07-20T16:06:30;27.70;40.80
8939;DHT22;4504;48.810;9.172;2023-07-20T16:08:58;27.50;40.40
8939;DHT22;4504;48.810;9.172;2023-07-20T16:11:25;27.40;41.10
8939;DHT22;4504;48.810;9.172;2023-07-20T16:13:54;27.60;41.70
8939;DHT22;4504;48.810;9.172;2023-07-20T16:16:22;27.80;41.30
8939;DHT22;4504;48.810;9.172;2023-07-20T16:18:49;27.50;41.10
8939;DHT22;4504;48.810;9.172;2023-07-20T16:21:16;27.60;39.80
8939;DHT22;4504;48.810;9.172;2023-07-20T16:23:43;27.00;39.90
8939;DHT22;4504;48.810;9.172;2023-07-20T16:26:12;26.90;41.10
8939;DHT22;4504;48.810;9.172;2023-07-20T16:28:39;26.80;41.60
8939;DHT22;4504;48.810;9.172;2023-07-20T16:31:11;26.90;41.60
8939;DHT22;4504;48.810;9.172;2023-07-20T16:33:38;26.60;40.90
8939;DHT22;4504;48.810;9.172;2023-07-20T16:36:08;26.40;41.50
8939;DHT22;4504;48.810;9.172;2023-07-20T16:38:36;26.30;42.00
8939;DHT22;4504;48.810;9.172;2023-07-20T16:41:05;26.40;42.40
8939;DHT22;4504;48.810;9.172;2023-07-20T16:46:21;26.30;42.30
8939;DHT22;4504;48.810;9.172;2023-07-20T16:48:48;26.40;42.30
8939;DHT22;4504;48.810;9.172;2023-07-20T16:51:15;26.50;41.90
8939;DHT22;4504;48.810;9.172;2023-07-20T16:53:42;26.40;43.10
8939;DHT22;4504;48.810;9.172;2023-07-20T16:56:09;26.20;42.70
8939;DHT22;4504;48.810;9.172;2023-07-20T16:58:37;26.10;42.60
8939;DHT22;4504;48.810;9.172;2023-07-20T17:01:04;26.20;43.10
8939;DHT22;4504;48.810;9.172;2023-07-20T17:03:33;26.00;43.10
8939;DHT22;4504;48.810;9.172;2023-07-20T17:06:03;25.80;42.40
8939;DHT22;4504;48.810;9.172;2023-07-20T17:08:31;25.70;43.20
8939;DHT22;4504;48.810;9.172;2023-07-20T17:10:58;25.60;42.60
8939;DHT22;4504;48.810;9.172;2023-07-20T17:13:26;25.50;43.40
8939;DHT22;4504;48.810;9.172;2023-07-20T17:15:53;25.70;43.30
8939;DHT22;4504;48.810;9.172;2023-07-20T17:18:20;25.60;43.00
8939;DHT22;4504;48.810;9.172;2023-07-20T17:20:49;25.70;43.30
8939;DHT22;4504;48.810;9.172;2023-07-20T17:23:16;25.70;43.00
8939;DHT22;4504;48.810;9.172;2023-07-20T17:25:44;25.50;43.00
8939;DHT22;4504;48.810;9.172;2023-07-20T17:28:12;25.40;43.70
8939;DHT22;4504;48.810;9.172;2023-07-20T17:30:39;25.50;43.20
8939;DHT22;4504;48.810;9.172;2023-07-20T17:33:06;25.40;43.90
8939;DHT22;4504;48.810;9.172;2023-07-20T17:35:34;25.20;43.50
8939;DHT22;4504;48.810;9.172;2023-07-20T17:38:03;25.00;44.00
8939;DHT22;4504;48.810;9.172;2023-07-20T17:40:30;24.90;43.90
8939;DHT22;4504;48.810;9.172;2023-07-20T17:42:57;24.80;43.60
8939;DHT22;4504;48.810;9.172;2023-07-20T17:45:24;24.80;44.70
8939;DHT22;4504;48.810;9.172;2023-07-20T17:47:51;24.70;43.60
8939;DHT22;4504;48.810;9.172;2023-07-20T17:50:18;24.70;44.50
8939;DHT22;4504;48.810;9.172;2023-07-20T17:52:45;24.60;44.80
8939;DHT22;4504;48.810;9.172;2023-07-20T17:55:13;24.60;44.40
8939;DHT22;4504;48.810;9.172;2023-07-20T17:57:41;24.50;44.90
8939;DHT22;4504;48.810;9.172;2023-07-20T18:00:09;24.40;45.40
8939;DHT22;4504;48.810;9.172;2023-07-20T18:02:37;24.40;45.50
8939;DHT22;4504;48.810;9.172;2023-07-20T18:05:04;24.30;45.50
8939;DHT22;4504;48.810;9.172;2023-07-20T18:07:32;24.30;46.00
8939;DHT22;4504;48.810;9.172;2023-07-20T18:10:00;24.30;45.60
8939;DHT22;4504;48.810;9.172;2023-07-20T18:12:30;24.30;46.30
8939;DHT22;4504;48.810;9.172;2023-07-20T18:14:57;24.20;46.10
8939;DHT22;4504;48.810;9.172;2023-07-20T18:17:24;24.20;46.20
8939;DHT22;4504;48.810;9.172;2023-07-20T18:19:51;24.10;46.70
8939;DHT22;4504;48.810;9.172;2023-07-20T18:22:18;24.10;46.50
8939;DHT22;4504;48.810;9.172;2023-07-20T18:24:45;24.00;45.70
8939;DHT22;4504;48.810;9.172;2023-07-20T18:27:12;24.00;45.80
8939;DHT22;4504;48.810;9.172;2023-07-20T18:29:41;24.00;46.60
8939;DHT22;4504;48.810;9.172;2023-07-20T18:32:08;23.90;45.90
8939;DHT22;4504;48.810;9.172;2023-07-20T18:34:36;23.80;46.40
8939;DHT22;4504;48.810;9.172;2023-07-20T18:37:03;23.90;47.30
8939;DHT22;4504;48.810;9.172;2023-07-20T18:39:30;23.90;47.20
8939;DHT22;4504;48.810;9.172;2023-07-20T18:41:58;24.00;47.80
8939;DHT22;4504;48.810;9.172;2023-07-20T18:44:25;24.00;47.70
8939;DHT22;4504;48.810;9.172;2023-07-20T18:46:54;24.00;47.90
8939;DHT22;4504;48.810;9.172;2023-07-20T18:49:22;24.00;47.80
8939;DHT22;4504;48.810;9.172;2023-07-20T18:51:51;24.00;48.10
8939;DHT22;4504;48.810;9.172;2023-07-20T18:54:18;24.00;47.80
8939;DHT22;4504;48.810;9.172;2023-07-20T18:56:45;24.00;48.40
8939;DHT22;4504;48.810;9.172;2023-07-20T18:59:12;24.00;48.50
8939;DHT22;4504;48.810;9.172;2023-07-20T19:01:39;24.00;49.40
8939;DHT22;4504;48.810;9.172;2023-07-20T19:04:08;23.90;46.90
8939;DHT22;4504;48.810;9.172;2023-07-20T19:06:35;23.90;48.70
8939;DHT22;4504;48.810;9.172;2023-07-20T19:09:03;23.90;48.70
8939;DHT22;4504;48.810;9.172;2023-07-20T19:11:30;23.90;48.30
8939;DHT22;4504;48.810;9.172;2023-07-20T19:13:57;23.90;49.10
8939;DHT22;4504;48.810;9.172;2023-07-20T19:16:24;23.80;48.40
8939;DHT22;4504;48.810;9.172;2023-07-20T19:18:55;23.80;48.60
8939;DHT22;4504;48.810;9.172;2023-07-20T19:21:23;23.70;48.20
8939;DHT22;4504;48.810;9.172;2023-07-20T19:23:50;23.60;48.50
8939;DHT22;4504;48.810;9.172;2023-07-20T19:26:18;23.50;49.00
8939;DHT22;4504;48.810;9.172;2023-07-20T19:28:45;23.40;49.50
8939;DHT22;4504;48.810;9.172;2023-07-20T19:31:12;23.30;49.30
8939;DHT22;4504;48.810;9.172;2023-07-20T19:33:39;23.30;50.20
8939;DHT22;4504;48.810;9.172;2023-07-20T19:36:06;23.30;50.70
8939;DHT22;4504;48.810;9.172;2023-07-20T19:38:35;23.20;51.10
8939;DHT22;4504;48.810;9.172;2023-07-20T19:41:02;23.10;50.40
8939;DHT22;4504;48.810;9.172;2023-07-20T19:43:31;23.00;50.80
8939;DHT22;4504;48.810;9.172;2023-07-20T19:45:58;22.90;51.40
8939;DHT22;4504;48.810;9.172;2023-07-20T19:48:25;22.80;51.60
8939;DHT22;4504;48.810;9.172;2023-07-20T19:50:53;22.70;52.00
8939;DHT22;4504;48.810;9.172;2023-07-20T19:53:21;22.60;52.50
8939;DHT22;4504;48.810;9.172;2023-07-20T19:55:49;22.60;52.50
8939;DHT22;4504;48.810;9.172;2023-07-20T19:58:16;22.40;51.70
8939;DHT22;4504;48.810;9.172;2023-07-20T20:00:44;22.40;51.70
8939;DHT22;4504;48.810;9.172;2023-07-20T20:03:11;22.30;52.40
8939;DHT22;4504;48.810;9.172;2023-07-20T20:05:38;22.10;52.20
8939;DHT22;4504;48.810;9.172;2023-07-20T20:08:05;22.20;52.80
8939;DHT22;4504;48.810;9.172;2023-07-20T20:10:34;22.10;53.00
8939;DHT22;4504;48.810;9.172;2023-07-20T20:13:03;22.20;53.60
8939;DHT22;4504;48.810;9.172;2023-07-20T20:15:30;22.10;53.60
8939;DHT22;4504;48.810;9.172;2023-07-20T20:17:58;22.10;53.40
8939;DHT22;4504;48.810;9.172;2023-07-20T20:20:31;22.10;53.20
8939;DHT22;4504;48.810;9.172;2023-07-20T20:22:59;22.10;53.40
8939;DHT22;4504;48.810;9.172;2023-07-20T20:25:26;22.10;53.80
8939;DHT22;4504;48.810;9.172;2023-07-20T20:27:54;22.00;54.00
8939;DHT22;4504;48.810;9.172;2023-07-20T20:30:22;22.10;54.10
8939;DHT22;4504;48.810;9.172;2023-07-20T20:32:50;22.00;54.10
8939;DHT22;4504;48.810;9.172;2023-07-20T20:35:17;21.90;54.40
8939;DHT22;4504;48.810;9.172;2023-07-20T20:37:44;21.90;54.40
8939;DHT22;4504;48.810;9.172;2023-07-20T20:40:12;21.80;54.50
8939;DHT22;4504;48.810;9.172;2023-07-20T20:42:39;21.80;54.30
8939;DHT22;4504;48.810;9.172;2023-07-20T20:45:08;21.70;54.70
8939;DHT22;4504;48.810;9.172;2023-07-20T20:47:38;21.60;55.00
8939;DHT22;4504;48.810;9.172;2023-07-20T20:50:06;21.50;55.50
8939;DHT22;4504;48.810;9.172;2023-07-20T20:52:34;21.50;55.40
8939;DHT22;4504;48.810;9.172;2023-07-20T20:55:01;21.50;56.40
8939;DHT22;4504;48.810;9.172;2023-07-20T20:57:30;21.40;55.40
8939;DHT22;4504;48.810;9.172;2023-07-20T20:59:57;21.40;55.80
8939;DHT22;4504;48.810;9.172;2023-07-20T21:02:24;21.50;56.20
8939;DHT22;4504;48.810;9.172;2023-07-20T21:04:52;21.40;56.60
8939;DHT22;4504;48.810;9.172;2023-07-20T21:07:19;21.40;58.20
8939;DHT22;4504;48.810;9.172;2023-07-20T21:09:47;21.50;58.10
8939;DHT22;4504;48.810;9.172;2023-07-20T21:12:14;21.50;57.20
8939;DHT22;4504;48.810;9.172;2023-07-20T21:14:41;21.50;57.20
8939;DHT22;4504;48.810;9.172;2023-07-20T21:17:08;21.40;57.10
8939;DHT22;4504;48.810;9.172;2023-07-20T21:19:35;21.40;57.30
8939;DHT22;4504;48.810;9.172;2023-07-20T21:22:04;21.30;57.30
8939;DHT22;4504;48.810;9.172;2023-07-20T21:24:31;21.20;57.40
8939;DHT22;4504;48.810;9.172;2023-07-20T21:26:58;21.20;57.30
8939;DHT22;4504;48.810;9.172;2023-07-20T21:29:25;21.10;57.30
8939;DHT22;4504;48.810;9.172;2023-07-20T21:31:52;21.10;57.40
8939;DHT22;4504;48.810;9.172;2023-07-20T21:34:19;21.00;57.90
8939;DHT22;4504;48.810;9.172;2023-07-20T21:36:46;21.00;58.50
8939;DHT22;4504;48.810;9.172;2023-07-20T21:39:14;20.90;58.30
8939;DHT22;4504;48.810;9.172;2023-07-20T21:41:41;20.80;58.20
8939;DHT22;4504;48.810;9.172;2023-07-20T21:44:08;20.70;58.60
8939;DHT22;4504;48.810;9.172;2023-07-20T21:46:35;20.70;58.90
8939;DHT22;4504;48.810;9.172;2023-07-20T21:49:02;20.70;59.30
8939;DHT22;4504;48.810;9.172;2023-07-20T21:51:29;20.60;59.30
8939;DHT22;4504;48.810;9.172;2023-07-20T21:53:56;20.60;59.90
8939;DHT22;4504;48.810;9.172;2023-07-20T21:56:25;20.70;59.60
8939;DHT22;4504;48.810;9.172;2023-07-20T21:58:52;20.70;59.90
8939;DHT22;4504;48.810;9.172;2023-07-20T22:01:19;20.70;61.90
8939;DHT22;4504;48.810;9.172;2023-07-20T22:03:46;20.70;60.60
8939;DHT22;4504;48.810;9.172;2023-07-20T22:06:13;20.60;59.90
8939;DHT22;4504;48.810;9.172;2023-07-20T22:08:40;20.50;61.10
8939;DHT22;4504;48.810;9.172;2023-07-20T22:11:08;20.50;60.10
8939;DHT22;4504;48.810;9.172;2023-07-20T22:13:36;20.40;60.60
8939;DHT22;4504;48.810;9.172;2023-07-20T22:16:03;20.30;61.50
8939;DHT22;4504;48.810;9.172;2023-07-20T22:18:31;20.30;61.60
8939;DHT22;4504;48.810;9.172;2023-07-20T22:20:58;20.20;61.80
8939;DHT22;4504;48.810;9.172;2023-07-20T22:23:29;20.20;61.60
8939;DHT22;4504;48.810;9.172;2023-07-20T22:25:56;20.20;61.70
8939;DHT22;4504;48.810;9.172;2023-07-20T22:28:23;20.20;61.10
8939;DHT22;4504;48.810;9.172;2023-07-20T22:30:56;20.10;61.70
8939;DHT22;4504;48.810;9.172;2023-07-20T22:33:23;20.10;61.10
8939;DHT22;4504;48.810;9.172;2023-07-20T22:35:51;20.10;61.80
8939;DHT22;4504;48.810;9.172;2023-07-20T22:38:18;20.20;61.50